Time;durP1;ratioP1;P1;durP2;ratioP2;P2;SDS_P1;SDS_P2;PMS_P1;PMS_P2;Temp;Humidity;BMP_temperature;BMP_pressure;BME280_temperature;BME280_humidity;BME280_pressure;Samples;Min_cycle;Max_cycle;Signal;HPM_P1;HPM_P2
2023/03/15 00:01:33;;;;;;;2.22;1.83;;;4.50;99.90;;;;;;5018193;28;20392;-76
2023/03/15 00:03:58;;;;;;;1.90;1.67;;;4.40;99.90;;;;;;5011781;28;20729;-77
2023/03/15 00:06:24;;;;;;;2.17;1.97;;;4.40;99.90;;;;;;5011617;28;20509;-76
2023/03/15 00:08:50;;;;;;;1.90;1.80;;;4.50;99.90;;;;;;5011619;28;20479;-76
2023/03/15 00:11:17;;;;;;;1.88;1.73;;;4.30;99.90;;;;;;5043400;28;20938;-76
2023/03/15 00:13:43;;;;;;;1.83;1.73;;;4.40;99.90;;;;;;5011558;28;20391;-76
2023/03/15 00:16:09;;;;;;;2.35;1.80;;;4.30;99.90;;;;;;5011230;28;20392;-76
2023/03/15 00:18:35;;;;;;;2.10;1.75;;;4.30;99.90;;;;;;5011467;28;20391;-76
2023/03/15 00:21:00;;;;;;;2.00;1.80;;;4.30;99.90;;;;;;5014681;28;20499;-76
2023/03/15 00:23:26;;;;;;;1.77;1.60;;;4.30;99.90;;;;;;5029776;28;20838;-76
2023/03/15 00:25:52;;;;;;;2.50;1.80;;;4.30;99.90;;;;;;5028631;28;20416;-76
2023/03/15 00:28:18;;;;;;;1.95;1.80;;;4.20;99.90;;;;;;5030667;28;20773;-76
2023/03/15 00:30:44;;;;;;;3.50;2.10;;;4.30;99.90;;;;;;5030843;28;20536;-76
2023/03/15 00:33:14;;;;;;;2.25;1.70;;;4.20;99.90;;;;;;5031149;28;20384;-76
2023/03/15 00:35:42;;;;;;;2.22;1.95;;;4.20;99.90;;;;;;5030579;28;20750;-76
2023/03/15 00:38:08;;;;;;;2.20;2.00;;;4.20;99.90;;;;;;5025009;28;20420;-76
2023/03/15 00:40:36;;;;;;;2.00;1.90;;;4.10;99.90;;;;;;5010964;28;20555;-74
2023/03/15 00:43:02;;;;;;;2.30;1.90;;;4.00;99.90;;;;;;5021140;28;20939;-74
2023/03/15 00:45:28;;;;;;;2.20;2.00;;;4.00;99.90;;;;;;5030323;28;20398;-75
2023/03/15 00:47:54;;;;;;;2.30;2.10;;;4.10;99.90;;;;;;5030589;28;20403;-74
2023/03/15 00:50:20;;;;;;;2.15;1.90;;;4.10;99.90;;;;;;5031148;28;20383;-77
2023/03/15 00:52:46;;;;;;;2.25;2.05;;;4.10;99.90;;;;;;5030874;28;20379;-75
2023/03/15 00:55:15;;;;;;;1.80;1.70;;;4.10;99.90;;;;;;5030475;28;20385;-75
2023/03/15 00:57:42;;;;;;;2.17;1.95;;;4.10;99.90;;;;;;5011499;28;20412;-75
2023/03/15 01:00:14;;;;;;;2.30;2.08;;;4.00;99.90;;;;;;5010682;28;20440;-77
2023/03/15 01:02:40;;;;;;;2.03;1.67;;;4.10;99.90;;;;;;5009496;28;20822;-76
2023/03/15 01:05:07;;;;;;;2.10;1.80;;;4.00;99.90;;;;;;5010582;28;20414;-74
2023/03/15 01:07:33;;;;;;;2.53;2.00;;;3.90;99.90;;;;;;5010501;28;20443;-73
2023/03/15 01:10:05;;;;;;;3.00;1.85;;;4.00;99.90;;;;;;5010574;28;20408;-75
2023/03/15 01:12:33;;;;;;;2.90;2.03;;;3.90;99.90;;;;;;5026184;28;20395;-75
2023/03/15 01:14:59;;;;;;;2.17;1.98;;;3.80;99.90;;;;;;5023883;28;20959;-76
2023/03/15 01:17:25;;;;;;;2.17;1.90;;;3.70;99.90;;;;;;5029675;28;20761;-74
2023/03/15 01:19:50;;;;;;;2.30;2.10;;;3.50;99.90;;;;;;5030111;28;20395;-73
2023/03/15 01:22:17;;;;;;;2.80;2.30;;;3.50;99.90;;;;;;5030202;28;20760;-73
2023/03/15 01:24:43;;;;;;;2.30;2.10;;;3.40;99.90;;;;;;5030153;28;20514;-73
2023/03/15 01:27:08;;;;;;;2.70;2.15;;;3.40;99.90;;;;;;5020955;28;20528;-74
2023/03/15 01:29:34;;;;;;;2.60;2.20;;;3.20;99.90;;;;;;5016871;28;20406;-73
2023/03/15 01:31:59;;;;;;;2.40;2.10;;;3.10;99.90;;;;;;5030149;28;20746;-74
2023/03/15 01:34:25;;;;;;;3.10;2.22;;;2.90;99.90;;;;;;5030006;28;20900;-73
2023/03/15 01:36:52;;;;;;;2.70;2.50;;;2.90;99.90;;;;;;5029812;28;20382;-74
2023/03/15 01:39:17;;;;;;;2.83;2.10;;;2.90;99.90;;;;;;5023210;28;20993;-74
2023/03/15 01:41:43;;;;;;;2.73;2.30;;;2.90;99.90;;;;;;5010176;28;20428;-73
2023/03/15 01:44:13;;;;;;;2.40;1.90;;;2.90;99.90;;;;;;5010479;28;20468;-75
2023/03/15 01:46:40;;;;;;;3.50;2.30;;;2.80;99.90;;;;;;5010121;28;20466;-74
2023/03/15 01:49:08;;;;;;;2.97;2.40;;;2.80;99.90;;;;;;5010108;28;20743;-74
2023/03/15 01:51:36;;;;;;;2.40;2.07;;;2.70;99.90;;;;;;5010303;28;20412;-74
2023/03/15 01:54:05;;;;;;;2.50;1.95;;;2.60;99.90;;;;;;5010339;28;20389;-74
2023/03/15 01:56:33;;;;;;;2.90;2.30;;;2.50;99.90;;;;;;5010189;28;20404;-75
2023/03/15 01:59:01;;;;;;;3.30;2.30;;;2.40;99.90;;;;;;5010805;28;20794;-75
2023/03/15 02:01:28;;;;;;;3.30;2.40;;;2.40;99.90;;;;;;5014254;28;20400;-75
2023/03/15 02:04:00;;;;;;;3.80;2.30;;;2.50;99.90;;;;;;5010320;28;20467;-75
2023/03/15 02:06:26;;;;;;;2.65;2.38;;;2.40;99.90;;;;;;5008463;28;20424;-76
2023/03/15 02:09:02;;;;;;;2.80;2.40;;;2.50;99.90;;;;;;5011708;28;20893;-75
2023/03/15 02:11:28;;;;;;;2.40;1.90;;;2.40;99.90;;;;;;5029428;28;20876;-75
2023/03/15 02:13:55;;;;;;;2.30;2.10;;;2.40;99.90;;;;;;5033655;28;20504;-74
2023/03/15 02:16:22;;;;;;;2.20;2.00;;;2.30;99.90;;;;;;5032128;28;20490;-75
2023/03/15 02:18:48;;;;;;;2.45;2.25;;;2.10;99.90;;;;;;5031015;28;20395;-75
2023/03/15 02:21:24;;;;;;;2.15;2.03;;;2.20;99.90;;;;;;5018816;28;20980;-75
2023/03/15 02:24:29;;;;;;;2.53;2.30;;;2.10;99.90;;;;;;5012945;28;20471;-76
2023/03/15 02:26:56;;;;;;;2.35;2.15;;;2.20;99.90;;;;;;5011185;28;20416;-75
2023/03/15 02:29:24;;;;;;;4.00;2.58;;;2.20;99.90;;;;;;5012628;28;20475;-76
2023/03/15 02:31:51;;;;;;;2.50;2.30;;;2.20;99.90;;;;;;5013378;28;20869;-76
2023/03/15 02:34:17;;;;;;;4.30;2.50;;;2.10;99.90;;;;;;5019522;28;20465;-75
2023/03/15 02:36:42;;;;;;;2.50;2.30;;;2.10;99.90;;;;;;5032268;28;20861;-75
2023/03/15 02:39:19;;;;;;;2.53;2.33;;;2.10;99.90;;;;;;5013257;28;20396;-74
2023/03/15 02:41:54;;;;;;;3.13;2.20;;;2.00;99.90;;;;;;5013280;28;20834;-75
2023/03/15 02:44:35;;;;;;;2.30;1.80;;;1.90;99.90;;;;;;5013369;28;20407;-74
2023/03/15 02:47:19;;;;;;;2.92;2.30;;;1.90;99.90;;;;;;5012831;28;20906;-74
2023/03/15 02:49:49;;;;;;;2.08;1.60;;;1.80;99.90;;;;;;5013008;28;20907;-76
2023/03/15 02:52:15;;;;;;;3.00;2.00;;;1.70;99.90;;;;;;5024721;28;20485;-76
2023/03/15 02:54:44;;;;;;;2.40;2.10;;;1.80;99.90;;;;;;5013133;28;20819;-76
2023/03/15 02:57:11;;;;;;;2.13;1.80;;;1.70;99.90;;;;;;5012617;28;20422;-75
2023/03/15 02:59:37;;;;;;;2.30;2.10;;;1.70;99.90;;;;;;5012939;28;20770;-74
2023/03/15 03:02:04;;;;;;;2.45;2.05;;;1.90;99.90;;;;;;5012951;28;20400;-75
2023/03/15 03:04:29;;;;;;;3.10;2.10;;;1.90;99.90;;;;;;5012906;28;20451;-74
2023/03/15 03:06:55;;;;;;;2.60;2.40;;;1.90;99.90;;;;;;5012791;28;20413;-76
2023/03/15 03:09:21;;;;;;;3.70;2.40;;;1.80;99.90;;;;;;5012741;28;20385;-74
2023/03/15 03:11:46;;;;;;;2.40;2.20;;;1.70;99.90;;;;;;5019390;28;20480;-74
2023/03/15 03:14:15;;;;;;;3.10;2.20;;;1.60;99.90;;;;;;5032642;28;20385;-74
2023/03/15 03:16:44;;;;;;;4.45;2.20;;;1.50;99.90;;;;;;5032107;28;20391;-74
2023/03/15 03:19:13;;;;;;;2.00;1.80;;;1.50;99.90;;;;;;5032230;28;20401;-76
2023/03/15 03:21:38;;;;;;;2.80;2.03;;;1.40;99.90;;;;;;5031318;28;20418;-75
2023/03/15 03:24:04;;;;;;;2.97;2.67;;;1.40;99.90;;;;;;5032467;28;20391;-75
2023/03/15 03:26:31;;;;;;;3.63;2.77;;;1.40;99.90;;;;;;5015889;28;20910;-75
2023/03/15 03:28:57;;;;;;;3.20;2.40;;;1.50;99.90;;;;;;5010878;28;20992;-74
2023/03/15 03:31:25;;;;;;;2.33;2.10;;;1.40;99.90;;;;;;5011065;28;20400;-75
2023/03/15 03:33:51;;;;;;;2.60;2.40;;;1.50;99.90;;;;;;5012444;28;20396;-74
2023/03/15 03:36:17;;;;;;;2.30;2.10;;;1.30;99.90;;;;;;5012119;28;20782;-74
2023/03/15 03:38:45;;;;;;;3.10;2.40;;;1.30;99.90;;;;;;5012827;28;20422;-76
2023/03/15 03:41:12;;;;;;;4.00;2.03;;;1.20;99.90;;;;;;5010945;28;20395;-75
2023/03/15 03:43:38;;;;;;;2.30;1.88;;;1.30;99.90;;;;;;5012239;28;20392;-74
2023/03/15 03:46:04;;;;;;;4.20;2.00;;;1.20;99.90;;;;;;5012095;28;20454;-74
2023/03/15 03:48:30;;;;;;;1.92;1.73;;;1.30;99.90;;;;;;5011988;28;20515;-74
2023/03/15 03:50:56;;;;;;;2.40;2.20;;;1.20;99.90;;;;;;5012223;28;20471;-75
2023/03/15 03:53:22;;;;;;;2.03;1.83;;;1.30;99.90;;;;;;5015633;28;20406;-74
2023/03/15 03:55:47;;;;;;;1.98;1.73;;;1.20;99.90;;;;;;5031574;28;20387;-74
2023/03/15 03:58:13;;;;;;;3.33;2.13;;;1.20;99.90;;;;;;5027935;28;20407;-74
2023/03/15 04:00:40;;;;;;;2.80;2.50;;;1.30;99.90;;;;;;5031714;28;20429;-75
2023/03/15 04:03:06;;;;;;;2.08;1.90;;;1.20;99.90;;;;;;5030377;28;20406;-74
2023/03/15 04:05:32;;;;;;;3.63;2.10;;;1.10;99.90;;;;;;5031248;28;20478;-73
2023/03/15 04:07:57;;;;;;;2.80;2.45;;;1.10;99.90;;;;;;5030006;28;20781;-73
2023/03/15 04:10:25;;;;;;;3.83;2.60;;;1.10;99.90;;;;;;5013515;28;20400;-75
2023/03/15 04:12:55;;;;;;;3.80;2.60;;;1.20;99.90;;;;;;5011353;28;20901;-74
2023/03/15 04:15:22;;;;;;;6.18;2.90;;;1.10;99.90;;;;;;5011426;28;20389;-76
2023/03/15 04:17:48;;;;;;;4.15;2.83;;;1.20;99.90;;;;;;5011422;28;20472;-74
2023/03/15 04:20:16;;;;;;;3.05;2.08;;;1.20;99.90;;;;;;5011528;28;20389;-74
2023/03/15 04:22:48;;;;;;;2.92;2.20;;;1.10;99.90;;;;;;5011597;28;20883;-74
2023/03/15 04:25:20;;;;;;;3.33;2.42;;;1.00;99.90;;;;;;5018647;28;20406;-76
2023/03/15 04:27:57;;;;;;;2.83;2.58;;;1.00;99.90;;;;;;5030824;28;20421;-74
2023/03/15 04:30:26;;;;;;;3.22;2.60;;;1.00;99.90;;;;;;5029304;28;20903;-73
2023/03/15 04:32:57;;;;;;;2.55;2.35;;;1.00;99.90;;;;;;5029830;28;20458;-74
2023/03/15 04:35:27;;;;;;;2.65;2.13;;;1.00;99.90;;;;;;5026206;28;20430;-74
2023/03/15 04:37:53;;;;;;;2.70;2.50;;;1.10;99.90;;;;;;5015374;28;20443;-74
2023/03/15 04:40:22;;;;;;;3.40;2.58;;;1.00;99.90;;;;;;5011886;28;20384;-73
2023/03/15 04:42:54;;;;;;;4.38;2.60;;;1.00;99.90;;;;;;5011541;28;20443;-74
2023/03/15 04:45:21;;;;;;;3.30;3.00;;;0.90;99.90;;;;;;5010270;28;20393;-74
2023/03/15 04:47:48;;;;;;;3.47;2.53;;;1.00;99.90;;;;;;5011343;28;20794;-73
2023/03/15 04:50:14;;;;;;;3.40;2.70;;;0.90;99.90;;;;;;5011478;28;20400;-74
2023/03/15 04:52:39;;;;;;;4.63;2.90;;;0.90;99.90;;;;;;5043089;28;20906;-74
2023/03/15 04:55:05;;;;;;;3.50;2.70;;;0.80;99.90;;;;;;5017676;28;20402;-73
2023/03/15 04:57:31;;;;;;;3.55;2.97;;;0.90;99.90;;;;;;5020351;28;20487;-73
2023/03/15 04:59:56;;;;;;;5.65;3.40;;;0.90;99.90;;;;;;5011162;28;20392;-74
2023/03/15 05:02:22;;;;;;;4.22;2.30;;;0.90;99.90;;;;;;5011862;28;20396;-75
2023/03/15 05:04:47;;;;;;;2.40;2.20;;;0.90;99.90;;;;;;5011168;28;20860;-73
2023/03/15 05:07:13;;;;;;;4.20;2.70;;;1.00;99.90;;;;;;5011443;28;20479;-74
2023/03/15 05:09:39;;;;;;;3.40;2.60;;;1.00;99.90;;;;;;5025173;28;20885;-74
2023/03/15 05:12:05;;;;;;;3.30;2.83;;;1.00;99.90;;;;;;5013180;28;20548;-73
2023/03/15 05:14:31;;;;;;;3.38;2.80;;;0.90;99.90;;;;;;5011764;28;20393;-73
2023/03/15 05:16:58;;;;;;;4.18;2.97;;;0.90;99.90;;;;;;5011004;28;20392;-75
2023/03/15 05:19:24;;;;;;;3.85;3.00;;;0.90;99.90;;;;;;5010990;28;20389;-74
2023/03/15 05:21:50;;;;;;;3.83;3.50;;;0.90;99.90;;;;;;5015668;28;20765;-74
2023/03/15 05:24:15;;;;;;;4.07;3.50;;;0.80;99.90;;;;;;5019984;28;20488;-77
2023/03/15 05:26:45;;;;;;;4.75;3.05;;;0.80;99.90;;;;;;5014753;28;20419;-75
2023/03/15 05:29:14;;;;;;;4.10;3.38;;;0.70;99.90;;;;;;5030167;28;20398;-75
2023/03/15 05:31:39;;;;;;;4.10;3.00;;;0.70;99.90;;;;;;5030663;28;20395;-75
2023/03/15 05:34:06;;;;;;;5.30;3.40;;;0.70;99.90;;;;;;5030495;28;20762;-74
2023/03/15 05:36:32;;;;;;;4.88;3.75;;;0.70;99.90;;;;;;5012714;28;20400;-74
2023/03/15 05:38:58;;;;;;;5.20;4.45;;;0.80;99.90;;;;;;5009492;28;20393;-74
2023/03/15 05:41:23;;;;;;;5.80;4.40;;;0.70;99.90;;;;;;5015594;28;20466;-72
2023/03/15 05:43:50;;;;;;;5.10;3.90;;;0.70;99.90;;;;;;5013258;28;20396;-73
2023/03/15 05:46:16;;;;;;;5.38;3.25;;;0.80;99.90;;;;;;5010259;28;20405;-72
2023/03/15 05:48:42;;;;;;;4.55;3.65;;;0.70;99.90;;;;;;5026744;28;20751;-72
2023/03/15 05:51:08;;;;;;;3.72;3.40;;;0.70;99.90;;;;;;5013823;28;20475;-73
2023/03/15 05:53:33;;;;;;;5.97;4.50;;;0.70;99.90;;;;;;5013590;28;20414;-73
2023/03/15 05:55:59;;;;;;;5.30;4.20;;;0.70;99.90;;;;;;5014561;28;20471;-73
2023/03/15 05:58:25;;;;;;;4.85;4.35;;;0.70;99.90;;;;;;5014343;28;20894;-72
2023/03/15 06:00:50;;;;;;;4.70;4.20;;;0.70;99.90;;;;;;5014590;28;20392;-75
2023/03/15 06:03:16;;;;;;;6.60;3.90;;;0.70;99.90;;;;;;5014228;28;20396;-72
2023/03/15 06:05:42;;;;;;;6.10;4.50;;;0.60;99.90;;;;;;5013575;28;20404;-75
2023/03/15 06:08:08;;;;;;;5.20;3.70;;;0.80;99.90;;;;;;5014184;28;20425;-74
2023/03/15 06:10:34;;;;;;;4.80;4.30;;;0.70;99.90;;;;;;5019074;28;20403;-72
2023/03/15 06:12:59;;;;;;;5.00;3.80;;;0.80;99.90;;;;;;5033769;28;20756;-72
2023/03/15 06:15:25;;;;;;;4.53;3.40;;;0.80;99.90;;;;;;5033891;28;20387;-73
2023/03/15 06:17:51;;;;;;;4.30;3.87;;;0.80;99.90;;;;;;5032067;28;20885;-74
2023/03/15 06:20:16;;;;;;;4.00;3.60;;;0.80;99.90;;;;;;5032229;28;20382;-72
2023/03/15 06:22:42;;;;;;;4.05;3.65;;;0.90;99.90;;;;;;5022460;28;20451;-73
2023/03/15 06:25:08;;;;;;;4.85;3.95;;;0.90;99.90;;;;;;5030378;28;20418;-73
2023/03/15 06:27:34;;;;;;;6.13;4.10;;;1.00;99.90;;;;;;5012463;28;20448;-72
2023/03/15 06:29:59;;;;;;;4.13;3.35;;;1.00;99.90;;;;;;5013811;28;20467;-73
2023/03/15 06:32:25;;;;;;;4.90;3.60;;;1.00;99.90;;;;;;5014775;28;20950;-73
2023/03/15 06:34:51;;;;;;;4.70;3.80;;;1.00;99.90;;;;;;5013793;28;20894;-74
2023/03/15 06:37:16;;;;;;;4.18;2.90;;;1.10;99.90;;;;;;5022363;28;20387;-74
2023/03/15 06:39:43;;;;;;;3.53;2.73;;;1.10;99.90;;;;;;5033701;28;20384;-72
2023/03/15 06:42:11;;;;;;;5.35;3.03;;;1.30;99.90;;;;;;5033745;28;20934;-73
2023/03/15 06:44:38;;;;;;;4.60;3.10;;;1.30;99.90;;;;;;5033116;28;20399;-73
2023/03/15 06:47:03;;;;;;;4.47;3.30;;;1.30;99.90;;;;;;5032695;28;20461;-72
2023/03/15 06:49:29;;;;;;;4.28;3.38;;;1.30;99.90;;;;;;5033124;28;20383;-73
2023/03/15 06:51:55;;;;;;;3.77;3.30;;;1.40;99.90;;;;;;5016236;28;20950;-74
2023/03/15 06:54:21;;;;;;;3.70;3.30;;;1.40;99.90;;;;;;5023408;28;20473;-74
2023/03/15 06:56:46;;;;;;;4.25;3.33;;;1.50;99.90;;;;;;5026080;28;20483;-73
2023/03/15 06:59:12;;;;;;;5.00;3.10;;;1.60;99.90;;;;;;5011825;28;20395;-73
2023/03/15 07:01:38;;;;;;;3.83;3.40;;;1.70;99.90;;;;;;5013280;28;20389;-73
2023/03/15 07:04:03;;;;;;;4.10;3.30;;;1.70;99.90;;;;;;5013269;28;20871;-74
2023/03/15 07:06:29;;;;;;;3.87;3.30;;;1.90;99.90;;;;;;5013099;28;20388;-74
2023/03/15 07:08:54;;;;;;;4.70;3.10;;;1.90;99.90;;;;;;5013367;28;20405;-73
2023/03/15 07:11:20;;;;;;;3.43;3.00;;;2.00;99.90;;;;;;5013056;28;20404;-73
2023/03/15 07:13:46;;;;;;;3.33;2.97;;;1.90;99.90;;;;;;5047962;28;20796;-73
2023/03/15 07:16:11;;;;;;;5.00;3.27;;;2.00;99.90;;;;;;5029816;28;20869;-74
2023/03/15 07:18:37;;;;;;;3.30;2.55;;;2.10;99.90;;;;;;5012896;28;20469;-74
2023/03/15 07:21:04;;;;;;;3.63;3.00;;;2.10;99.90;;;;;;5012936;28;20403;-73
2023/03/15 07:23:29;;;;;;;5.10;3.25;;;2.30;99.90;;;;;;5012836;28;20471;-73
2023/03/15 07:25:55;;;;;;;3.63;2.70;;;2.40;99.90;;;;;;5012619;28;20393;-73
2023/03/15 07:28:22;;;;;;;4.97;3.67;;;2.40;99.90;;;;;;5023613;28;20469;-73
2023/03/15 07:30:59;;;;;;;5.40;3.30;;;2.50;99.90;;;;;;5012459;28;20426;-73
2023/03/15 07:33:26;;;;;;;5.55;3.50;;;2.50;99.90;;;;;;5012782;28;20377;-73
2023/03/15 07:35:52;;;;;;;6.57;3.53;;;2.50;99.90;;;;;;4998707;28;20453;-74
2023/03/15 07:38:19;;;;;;;3.80;3.17;;;2.70;99.90;;;;;;4993285;28;20426;-73
2023/03/15 07:40:45;;;;;;;4.00;3.40;;;2.80;99.90;;;;;;5013257;28;20402;-73
2023/03/15 07:43:11;;;;;;;3.30;3.00;;;2.80;99.90;;;;;;5012651;28;20400;-73
2023/03/15 07:45:36;;;;;;;4.30;3.47;;;2.90;99.90;;;;;;5012120;28;20442;-74
2023/03/15 07:48:02;;;;;;;4.18;3.40;;;2.90;99.90;;;;;;5012559;28;20929;-74
2023/03/15 07:50:28;;;;;;;7.18;3.30;;;3.00;99.90;;;;;;5012468;28;20387;-74
2023/03/15 07:52:53;;;;;;;3.17;2.70;;;3.10;99.90;;;;;;5019992;28;20395;-74
2023/03/15 07:55:19;;;;;;;3.47;2.73;;;3.10;99.90;;;;;;5031762;28;20395;-75
2023/03/15 07:57:44;;;;;;;4.00;2.70;;;3.30;99.90;;;;;;5017739;28;20481;-76
2023/03/15 08:00:12;;;;;;;4.50;2.60;;;3.30;99.90;;;;;;5010838;28;20915;-74
2023/03/15 08:02:40;;;;;;;3.58;2.97;;;3.40;99.90;;;;;;5012411;28;20479;-74
2023/03/15 08:05:06;;;;;;;3.28;2.90;;;3.40;99.90;;;;;;5010943;28;20400;-73
2023/03/15 08:07:32;;;;;;;4.20;2.60;;;3.50;99.90;;;;;;5011849;28;20412;-72
2023/03/15 08:09:58;;;;;;;4.73;2.60;;;3.50;99.90;;;;;;5011916;28;20463;-74
2023/03/15 08:12:24;;;;;;;4.33;2.50;;;3.60;99.90;;;;;;5011993;28;20377;-74
2023/03/15 08:14:50;;;;;;;3.65;2.40;;;3.70;99.90;;;;;;5012224;28;20377;-75
2023/03/15 08:17:16;;;;;;;3.28;2.17;;;3.80;99.90;;;;;;5011817;28;20760;-75
2023/03/15 08:19:43;;;;;;;2.80;2.00;;;3.90;69.10;;;;;;5028239;28;20391;-75
2023/03/15 08:22:09;;;;;;;3.72;2.00;;;3.90;1.00;;;;;;5031740;28;20743;-77
2023/03/15 08:24:35;;;;;;;3.40;2.50;;;4.00;13.00;;;;;;5031753;28;20472;-76
2023/03/15 08:27:02;;;;;;;2.95;2.00;;;4.10;1.00;;;;;;5031118;28;20929;-75
2023/03/15 08:29:28;;;;;;;2.13;1.70;;;4.20;1.00;;;;;;5031850;28;20386;-76
2023/03/15 08:31:53;;;;;;;2.50;1.90;;;4.20;1.00;;;;;;5026880;28;20744;-76
2023/03/15 08:34:20;;;;;;;3.90;2.10;;;4.20;1.00;;;;;;5012854;28;20899;-76
2023/03/15 08:36:46;;;;;;;2.38;1.50;;;4.30;1.00;;;;;;5029865;28;20901;-76
2023/03/15 08:39:12;;;;;;;4.20;1.77;;;4.40;1.00;;;;;;5031233;28;20406;-76
2023/03/15 08:41:39;;;;;;;4.10;1.50;;;4.50;1.00;;;;;;5030014;28;20982;-76
2023/03/15 08:44:05;;;;;;;4.40;1.90;;;4.60;1.00;;;;;;5030063;28;20402;-75
2023/03/15 08:46:32;;;;;;;2.47;1.50;;;4.70;1.00;;;;;;5017424;28;20411;-75
2023/03/15 08:48:57;;;;;;;2.42;1.40;;;4.70;99.90;;;;;;5043734;28;20775;-77
2023/03/15 08:51:25;;;;;;;2.00;1.35;;;4.80;1.00;;;;;;5043314;28;20401;-76
2023/03/15 08:53:51;;;;;;;1.70;1.30;;;4.80;19.40;;;;;;5010347;28;20894;-75
2023/03/15 08:56:16;;;;;;;3.00;1.60;;;5.00;99.90;;;;;;5009607;28;20389;-75
2023/03/15 08:58:42;;;;;;;1.25;1.00;;;5.30;99.90;;;;;;5016752;28;20452;-76
2023/03/15 09:01:10;;;;;;;2.47;1.10;;;5.30;1.00;;;;;;5029847;28;20383;-76
2023/03/15 09:03:36;;;;;;;1.10;0.90;;;5.50;99.90;;;;;;5030951;28;20394;-76
2023/03/15 09:06:02;;;;;;;2.40;1.10;;;5.70;1.00;;;;;;5030663;28;20436;-75
2023/03/15 09:08:27;;;;;;;1.80;0.70;;;5.70;99.90;;;;;;5030950;28;20399;-76
2023/03/15 09:10:55;;;;;;;1.83;0.80;;;5.60;1.00;;;;;;5029355;28;20403;-75
2023/03/15 09:13:20;;;;;;;3.13;1.00;;;5.70;99.90;;;;;;5016892;28;20396;-76
2023/03/15 09:15:50;;;;;;;1.60;0.90;;;5.90;99.90;;;;;;5022966;28;20681;-76
2023/03/15 09:18:15;;;;;;;0.70;0.60;;;6.00;99.90;;;;;;5014104;28;20431;-75
2023/03/15 09:20:41;;;;;;;1.30;1.10;;;6.20;99.90;;;;;;5011279;28;20457;-76
2023/03/15 09:23:06;;;;;;;1.77;0.80;;;6.10;1.00;;;;;;5010820;28;20392;-76
2023/03/15 09:25:32;;;;;;;2.03;0.90;;;6.10;1.00;;;;;;5010755;28;20466;-75
2023/03/15 09:27:58;;;;;;;1.60;0.70;;;6.20;1.00;;;;;;5011430;28;20491;-76
2023/03/15 09:30:23;;;;;;;2.00;0.75;;;6.20;1.00;;;;;;5030694;28;20394;-76
2023/03/15 09:32:50;;;;;;;1.50;0.50;;;6.30;1.00;;;;;;5023604;28;20385;-75
2023/03/15 09:35:18;;;;;;;0.90;0.60;;;6.30;1.00;;;;;;5010887;28;20381;-76
2023/03/15 09:37:44;;;;;;;0.60;0.40;;;6.50;99.90;;;;;;5010622;28;20385;-75
2023/03/15 09:40:18;;;;;;;1.58;0.63;;;6.50;99.90;;;;;;5042580;28;20415;-75
2023/03/15 09:42:58;;;;;;;1.55;0.70;;;6.50;99.90;;;;;;5042508;28;20433;-75
2023/03/15 09:45:42;;;;;;;1.13;0.60;;;6.50;99.90;;;;;;5010635;28;20388;-74
2023/03/15 09:48:15;;;;;;;1.20;0.50;;;6.60;99.90;;;;;;5025220;28;20914;-75
2023/03/15 09:50:50;;;;;;;3.35;0.60;;;6.80;99.90;;;;;;5010668;28;20399;-74
2023/03/15 09:53:26;;;;;;;3.50;1.13;;;6.90;99.90;;;;;;5010724;28;20429;-74
2023/03/15 09:55:52;;;;;;;1.77;0.70;;;7.00;99.90;;;;;;5010474;28;20798;-74
2023/03/15 09:58:25;;;;;;;1.50;0.60;;;7.10;99.90;;;;;;5010467;28;20397;-74
2023/03/15 10:00:59;;;;;;;1.70;0.80;;;7.10;99.90;;;;;;5010461;28;20397;-74
2023/03/15 10:03:51;;;;;;;2.30;0.80;;;7.20;99.90;;;;;;5010748;28;20425;-74
2023/03/15 10:06:25;;;;;;;0.65;0.50;;;7.20;99.90;;;;;;5028395;28;20395;-75
2023/03/15 10:08:57;;;;;;;1.00;0.60;;;7.40;99.90;;;;;;5030145;28;20415;-74
2023/03/15 10:11:52;;;;;;;1.60;0.80;;;7.30;99.90;;;;;;5030063;28;20391;-74
2023/03/15 10:14:39;;;;;;;0.80;0.60;;;7.40;99.90;;;;;;5030483;28;20437;-75
2023/03/15 10:17:11;;;;;;;1.77;0.50;;;7.60;99.90;;;;;;5029883;28;20378;-73
2023/03/15 10:20:00;;;;;;;1.10;0.60;;;7.70;99.90;;;;;;5014608;28;20405;-75
2023/03/15 10:22:51;;;;;;;1.05;0.60;;;7.70;99.90;;;;;;5028978;28;20387;-75
2023/03/15 10:25:26;;;;;;;1.20;0.60;;;8.00;99.90;;;;;;5030157;28;20762;-74
2023/03/15 10:28:17;;;;;;;1.45;0.63;;;7.90;99.90;;;;;;5029725;28;20417;-73
2023/03/15 10:30:48;;;;;;;0.80;0.70;;;7.90;99.90;;;;;;5032944;28;20394;-73
2023/03/15 10:33:30;;;;;;;2.83;1.15;;;7.90;99.90;;;;;;5032782;28;20395;-73
2023/03/15 10:35:57;;;;;;;7.82;1.67;;;7.90;99.90;;;;;;5013743;28;20377;-73
2023/03/15 10:38:24;;;;;;;1.10;0.70;;;8.10;99.90;;;;;;5012458;28;20907;-74
2023/03/15 10:40:56;;;;;;;1.60;0.80;;;8.00;99.90;;;;;;5027208;28;20765;-75
2023/03/15 10:43:25;;;;;;;0.95;0.90;;;8.10;99.90;;;;;;5033208;28;20426;-75
2023/03/15 10:46:12;;;;;;;1.00;0.90;;;8.20;99.90;;;;;;5031952;28;20387;-76
2023/03/15 10:48:50;;;;;;;1.88;0.90;;;8.10;99.90;;;;;;5033236;28;20893;-75
2023/03/15 10:51:24;;;;;;;1.20;0.90;;;8.30;99.90;;;;;;5032050;28;20445;-75
2023/03/15 10:54:03;;;;;;;3.42;0.82;;;8.30;99.90;;;;;;5024862;28;20797;-73
2023/03/15 10:56:43;;;;;;;2.70;0.80;;;8.30;99.90;;;;;;5013240;28;20412;-75
2023/03/15 10:59:17;;;;;;;1.40;0.80;;;8.50;99.90;;;;;;5024143;28;20458;-73
2023/03/15 11:01:47;;;;;;;1.38;0.60;;;8.40;99.90;;;;;;5033232;28;20393;-74
2023/03/15 11:04:20;;;;;;;0.73;0.63;;;8.40;99.90;;;;;;5033087;28;20393;-73
2023/03/15 11:06:47;;;;;;;1.30;1.10;;;8.60;99.90;;;;;;5031482;28;20398;-75
2023/03/15 11:09:19;;;;;;;1.45;0.90;;;8.70;99.90;;;;;;5022677;28;20421;-74
2023/03/15 11:11:51;;;;;;;1.20;1.10;;;8.90;99.90;;;;;;5013396;28;20393;-73
2023/03/15 11:14:17;;;;;;;2.60;0.90;;;8.70;99.90;;;;;;5013137;28;20461;-74
2023/03/15 11:16:50;;;;;;;1.30;0.70;;;8.90;99.90;;;;;;5012998;28;20805;-74
2023/03/15 11:19:21;;;;;;;1.80;0.80;;;9.10;99.90;;;;;;5013030;28;20400;-74
2023/03/15 11:21:48;;;;;;;2.47;0.73;;;8.90;99.90;;;;;;5046208;28;20473;-74
2023/03/15 11:24:27;;;;;;;1.00;0.90;;;9.00;99.90;;;;;;5032801;28;20391;-75
2023/03/15 11:26:54;;;;;;;1.30;0.65;;;9.10;99.90;;;;;;5012885;28;20397;-74
2023/03/15 11:29:36;;;;;;;1.20;0.68;;;8.90;99.90;;;;;;5011629;28;20542;-74
2023/03/15 11:32:15;;;;;;;1.33;0.90;;;9.10;99.90;;;;;;5013366;28;20380;-74
2023/03/15 11:34:52;;;;;;;2.05;0.90;;;9.40;99.90;;;;;;5012920;28;20380;-73
2023/03/15 11:37:26;;;;;;;3.03;0.90;;;9.70;99.90;;;;;;5012521;28;20381;-73
2023/03/15 11:40:07;;;;;;;0.70;0.60;;;10.20;99.90;;;;;;5026370;28;20406;-73
2023/03/15 11:42:40;;;;;;;0.80;0.60;;;10.80;99.90;;;;;;5032456;28;20778;-74
2023/03/15 11:45:25;;;;;;;0.90;0.60;;;11.60;90.90;;;;;;5015985;28;20983;-74
2023/03/15 11:47:58;;;;;;;1.98;0.70;;;12.30;83.00;;;;;;5012390;28;20818;-73
2023/03/15 11:50:24;;;;;;;0.98;0.77;;;12.00;33.20;;;;;;5012454;28;20481;-74
2023/03/15 11:52:50;;;;;;;1.10;0.60;;;12.00;41.40;;;;;;5012455;28;20459;-74
2023/03/15 11:55:25;;;;;;;3.05;1.20;;;12.70;42.50;;;;;;5012346;28;20384;-73
2023/03/15 11:57:52;;;;;;;1.40;0.60;;;12.90;22.50;;;;;;5012293;28;20408;-73
2023/03/15 12:00:30;;;;;;;1.30;0.60;;;12.90;9.70;;;;;;5012375;28;20480;-73
2023/03/15 12:02:58;;;;;;;0.80;0.70;;;12.70;3.20;;;;;;5018785;28;20430;-73
2023/03/15 12:05:51;;;;;;;1.23;0.90;;;11.00;1.00;;;;;;5031857;28;20437;-73
2023/03/15 12:08:33;;;;;;;1.15;0.75;;;9.60;3.10;;;;;;5031994;28;20402;-75
2023/03/15 12:10:59;;;;;;;0.80;0.60;;;9.30;9.20;;;;;;5030647;28;20403;-73
2023/03/15 12:13:30;;;;;;;1.23;0.80;;;10.00;11.90;;;;;;5031922;28;20932;-74
2023/03/15 12:15:57;;;;;;;0.80;0.70;;;11.40;15.80;;;;;;5030799;28;20383;-74
2023/03/15 12:18:42;;;;;;;1.30;0.75;;;11.60;5.90;;;;;;5015423;28;20403;-74
2023/03/15 12:21:18;;;;;;;1.17;0.90;;;11.50;9.40;;;;;;5031921;28;20383;-75
2023/03/15 12:23:48;;;;;;;1.50;0.52;;;11.00;6.30;;;;;;5031830;28;20383;-76
2023/03/15 12:26:29;;;;;;;1.17;0.60;;;11.00;3.30;;;;;;5031383;28;20533;-74
2023/03/15 12:28:57;;;;;;;1.17;0.80;;;11.90;3.00;;;;;;5031461;28;20411;-74
2023/03/15 12:31:23;;;;;;;0.95;0.57;;;13.10;1.20;;;;;;5023818;28;20393;-74
2023/03/15 12:33:56;;;;;;;2.47;0.90;;;11.50;1.00;;;;;;5019255;28;20411;-73
2023/03/15 12:36:38;;;;;;;1.20;0.60;;;11.30;1.00;;;;;;5009536;28;20397;-74
2023/03/15 12:39:15;;;;;;;2.30;0.80;;;12.70;7.70;;;;;;5012003;28;20442;-74
2023/03/15 12:41:49;;;;;;;1.20;0.70;;;11.40;1.00;;;;;;5012659;28;20385;-74
2023/03/15 12:44:23;;;;;;;1.20;0.70;;;12.20;1.00;;;;;;5012191;28;20456;-74
2023/03/15 12:46:49;;;;;;;0.77;0.50;;;12.10;1.00;;;;;;5015317;28;20453;-74
2023/03/15 12:49:17;;;;;;;1.70;0.80;;;12.70;1.00;;;;;;5010981;28;20409;-74
2023/03/15 12:51:52;;;;;;;1.80;0.80;;;11.30;1.00;;;;;;5010764;28;20392;-73
2023/03/15 12:54:19;;;;;;;1.10;0.60;;;11.20;1.00;;;;;;5011383;28;20412;-74
2023/03/15 12:56:49;;;;;;;0.90;0.70;;;11.30;1.00;;;;;;5011066;28;20436;-74
2023/03/15 12:59:26;;;;;;;1.08;0.70;;;12.90;1.00;;;;;;5011253;28;20385;-74
2023/03/15 13:01:51;;;;;;;1.10;0.60;;;13.00;1.00;;;;;;5011593;28;20392;-74
2023/03/15 13:04:17;;;;;;;0.90;0.60;;;14.10;1.00;;;;;;5011172;28;20531;-74
2023/03/15 13:06:56;;;;;;;1.30;0.70;;;13.00;1.00;;;;;;5011264;28;20463;-75